Time;durP1;ratioP1;P1;durP2;ratioP2;P2;SDS_P1;SDS_P2;PMS_P1;PMS_P2;Temp;Humidity;BMP_temperature;BMP_pressure;BME280_temperature;BME280_humidity;BME280_pressure;Samples;Min_cycle;Max_cycle;Signal;HPM_P1;HPM_P2
2022/04/12 00:01:31;;;;;;;16.15;3.00;;;7.10;99.90;;;;;;5062185;28;20017;-79
2022/04/12 00:03:57;;;;;;;8.05;2.45;;;7.10;99.90;;;;;;5063805;28;20029;-78
2022/04/12 00:06:22;;;;;;;11.75;2.90;;;7.10;99.90;;;;;;5069643;28;20068;-77
2022/04/12 00:08:48;;;;;;;9.75;2.67;;;7.10;99.90;;;;;;5064947;28;20033;-79
2022/04/12 00:11:13;;;;;;;12.48;2.95;;;7.10;99.90;;;;;;5064449;28;20109;-80
2022/04/12 00:13:39;;;;;;;9.32;2.83;;;7.10;99.90;;;;;;5063384;28;20032;-78
2022/04/12 00:16:04;;;;;;;13.20;3.08;;;7.10;99.90;;;;;;5061750;28;20060;-78
2022/04/12 00:21:14;;;;;;;12.90;4.07;;;7.00;99.90;;;;;;5076877;28;20032;-75
2022/04/12 00:23:40;;;;;;;13.07;3.13;;;7.00;99.90;;;;;;5067884;28;20037;-77
2022/04/12 00:26:06;;;;;;;14.52;3.83;;;7.10;99.90;;;;;;5073394;28;20534;-77
2022/04/12 00:28:31;;;;;;;16.00;3.25;;;7.00;99.90;;;;;;5076773;28;20036;-76
2022/04/12 00:30:57;;;;;;;10.77;2.85;;;7.00;99.90;;;;;;5074280;28;20043;-79
2022/04/12 00:33:22;;;;;;;13.73;3.63;;;7.00;99.90;;;;;;5078665;28;20041;-76
2022/04/12 00:35:48;;;;;;;11.32;2.92;;;7.00;99.90;;;;;;5078705;28;20032;-76
2022/04/12 00:38:17;;;;;;;9.57;3.25;;;7.00;99.90;;;;;;5073310;28;20107;-79
2022/04/12 00:40:46;;;;;;;11.38;3.72;;;7.00;99.90;;;;;;5059196;28;20021;-79
2022/04/12 00:43:12;;;;;;;14.52;3.83;;;7.00;99.90;;;;;;5060077;28;20083;-78
2022/04/12 00:45:37;;;;;;;14.95;3.47;;;7.00;99.90;;;;;;5064555;28;20033;-78
2022/04/12 00:48:03;;;;;;;16.27;3.83;;;6.90;99.90;;;;;;5074629;28;20013;-77
2022/04/12 00:50:29;;;;;;;12.85;3.53;;;6.90;99.90;;;;;;5076946;28;20032;-77
2022/04/12 00:52:56;;;;;;;14.07;4.03;;;6.90;99.90;;;;;;5074262;28;20040;-79
2022/04/12 00:55:22;;;;;;;15.82;3.20;;;6.90;99.90;;;;;;5065381;28;20047;-75
2022/04/12 00:57:48;;;;;;;11.10;3.35;;;6.80;99.90;;;;;;5064996;28;20075;-79
2022/04/12 01:00:16;;;;;;;13.38;3.42;;;6.80;99.90;;;;;;5071296;28;20023;-79
2022/04/12 01:02:42;;;;;;;10.20;2.85;;;6.80;99.90;;;;;;5063972;28;20037;-78
2022/04/12 01:05:07;;;;;;;16.85;3.83;;;6.80;99.90;;;;;;5062137;28;20035;-79
2022/04/12 01:07:34;;;;;;;12.40;3.30;;;6.80;99.90;;;;;;5062655;28;20440;-76
2022/04/12 01:10:00;;;;;;;10.30;2.92;;;6.80;99.90;;;;;;5076074;28;20112;-77
2022/04/12 01:12:28;;;;;;;9.00;2.85;;;6.90;99.90;;;;;;5077105;28;20041;-76
2022/04/12 01:14:54;;;;;;;14.18;3.10;;;6.90;99.90;;;;;;5070895;28;20032;-77
2022/04/12 01:17:20;;;;;;;14.98;3.42;;;6.80;99.90;;;;;;5068347;28;20025;-77
2022/04/12 01:19:46;;;;;;;13.20;3.53;;;6.80;99.90;;;;;;5063661;28;20021;-79
2022/04/12 01:22:33;;;;;;;11.57;3.45;;;6.80;99.90;;;;;;5061443;28;20104;-77
2022/04/12 01:24:59;;;;;;;10.00;3.22;;;6.70;99.90;;;;;;5062595;28;20094;-77
2022/04/12 01:27:24;;;;;;;11.63;3.25;;;6.70;99.90;;;;;;5077118;28;20024;-77
2022/04/12 01:29:52;;;;;;;10.23;3.20;;;6.70;99.90;;;;;;5075076;28;20020;-79
2022/04/12 01:32:17;;;;;;;14.77;2.97;;;6.70;99.90;;;;;;5059191;28;20049;-79
2022/04/12 01:34:43;;;;;;;9.88;2.97;;;6.70;99.90;;;;;;5058623;28;20470;-78
2022/04/12 01:37:08;;;;;;;13.40;3.60;;;6.70;99.90;;;;;;5060058;28;20394;-80
2022/04/12 01:39:34;;;;;;;11.00;2.90;;;6.70;99.90;;;;;;5061927;28;20036;-77
2022/04/12 01:42:00;;;;;;;11.13;2.97;;;6.70;99.90;;;;;;5061481;28;20021;-77
2022/04/12 01:44:25;;;;;;;14.40;3.42;;;6.70;99.90;;;;;;5061261;28;20017;-77
2022/04/12 01:46:51;;;;;;;18.27;4.28;;;6.60;99.90;;;;;;5058692;28;20132;-78
2022/04/12 01:49:16;;;;;;;15.07;3.63;;;6.60;99.90;;;;;;5061949;28;20041;-79
2022/04/12 01:51:42;;;;;;;11.23;3.40;;;6.60;99.90;;;;;;5061173;28;20418;-80
2022/04/12 01:54:08;;;;;;;11.30;3.45;;;6.60;99.90;;;;;;5060551;28;20470;-78
2022/04/12 01:56:34;;;;;;;15.45;3.13;;;6.50;99.90;;;;;;5056869;28;20032;-77
2022/04/12 01:59:00;;;;;;;17.13;3.78;;;6.60;99.90;;;;;;5056886;28;20031;-80
2022/04/12 02:01:26;;;;;;;10.98;3.60;;;6.60;99.90;;;;;;5060385;28;20104;-77
2022/04/12 02:03:52;;;;;;;13.65;3.63;;;6.60;99.90;;;;;;5066645;28;20036;-77
2022/04/12 02:06:18;;;;;;;13.23;3.53;;;6.60;99.90;;;;;;5063355;28;20128;-78
2022/04/12 02:08:44;;;;;;;13.75;3.72;;;6.60;99.90;;;;;;5060234;28;20106;-79
2022/04/12 02:11:10;;;;;;;11.00;3.40;;;6.50;99.90;;;;;;5060095;28;20033;-78
2022/04/12 02:13:36;;;;;;;8.98;3.80;;;6.60;99.90;;;;;;5057677;28;20036;-79
2022/04/12 02:16:01;;;;;;;11.60;4.10;;;6.60;99.90;;;;;;5057335;28;20017;-78
2022/04/12 02:18:27;;;;;;;11.63;3.40;;;6.60;99.90;;;;;;5058384;28;20029;-80
2022/04/12 02:20:52;;;;;;;10.63;3.30;;;6.60;99.90;;;;;;5063337;28;20009;-76
2022/04/12 02:23:17;;;;;;;9.52;3.40;;;6.50;99.90;;;;;;5077810;28;20123;-75
2022/04/12 02:25:43;;;;;;;11.30;3.60;;;6.60;99.90;;;;;;5076802;28;20037;-76
2022/04/12 02:28:09;;;;;;;14.82;4.00;;;6.60;99.90;;;;;;5060906;28;20397;-77
2022/04/12 02:30:34;;;;;;;8.68;3.17;;;6.60;99.90;;;;;;5057005;28;20108;-78
2022/04/12 02:33:00;;;;;;;15.43;3.80;;;6.60;99.90;;;;;;5059241;28;20069;-79
2022/04/12 02:35:26;;;;;;;22.98;4.25;;;6.50;99.90;;;;;;5058282;28;20056;-77
2022/04/12 02:37:52;;;;;;;11.43;3.80;;;6.40;99.90;;;;;;5060586;28;20053;-78
2022/04/12 02:40:17;;;;;;;12.00;3.58;;;6.50;99.90;;;;;;5059839;28;20029;-80
2022/04/12 02:42:43;;;;;;;13.07;3.80;;;6.40;99.90;;;;;;5057961;28;20033;-79
2022/04/12 02:45:09;;;;;;;9.60;3.55;;;6.50;99.90;;;;;;5058521;28;20029;-78
2022/04/12 02:47:35;;;;;;;10.75;3.60;;;6.50;99.90;;;;;;5066933;28;20035;-78
2022/04/12 02:50:01;;;;;;;12.38;3.88;;;6.40;99.90;;;;;;5074938;28;20040;-76
2022/04/12 02:52:26;;;;;;;12.52;3.92;;;6.50;99.90;;;;;;5074732;28;20029;-75
2022/04/12 02:54:52;;;;;;;14.63;4.55;;;6.40;99.90;;;;;;5074333;28;20029;-77
2022/04/12 02:57:18;;;;;;;13.77;4.32;;;6.50;99.90;;;;;;5071772;28;20036;-80
2022/04/12 02:59:43;;;;;;;13.10;3.85;;;6.50;99.90;;;;;;5068222;28;20009;-77
2022/04/12 03:02:09;;;;;;;14.00;4.60;;;6.50;99.90;;;;;;5064850;28;20150;-79
2022/04/12 03:04:34;;;;;;;19.02;5.18;;;6.40;99.90;;;;;;5059045;28;20036;-82
2022/04/12 03:07:00;;;;;;;11.98;4.22;;;6.50;99.90;;;;;;5092070;22;20053;-79
2022/04/12 03:09:25;;;;;;;10.93;4.75;;;6.40;99.90;;;;;;5077224;28;20033;-79
2022/04/12 03:11:51;;;;;;;18.02;4.43;;;6.40;99.90;;;;;;5075994;28;20080;-76
2022/04/12 03:14:16;;;;;;;13.52;3.78;;;6.50;99.90;;;;;;5061842;28;20036;-78
2022/04/12 03:16:42;;;;;;;14.30;3.60;;;6.50;99.90;;;;;;5056443;28;20037;-78
2022/04/12 03:19:08;;;;;;;12.52;4.03;;;6.50;99.90;;;;;;5058982;28;20044;-76
2022/04/12 03:21:34;;;;;;;12.02;3.78;;;6.50;99.90;;;;;;5058493;28;20024;-75
2022/04/12 03:24:00;;;;;;;17.70;4.53;;;6.50;99.90;;;;;;5055459;28;20024;-77
2022/04/12 03:26:25;;;;;;;18.35;4.07;;;6.50;99.90;;;;;;5056372;28;20025;-76
2022/04/12 03:28:51;;;;;;;16.10;3.97;;;6.50;99.90;;;;;;5055789;28;20547;-76
2022/04/12 03:31:16;;;;;;;12.75;3.67;;;6.50;99.90;;;;;;5055362;28;20028;-76
2022/04/12 03:33:42;;;;;;;11.02;3.90;;;6.50;99.90;;;;;;5053410;28;20029;-78
2022/04/12 03:36:07;;;;;;;14.30;4.03;;;6.40;99.90;;;;;;5053273;28;20025;-78
2022/04/12 03:38:35;;;;;;;10.43;3.90;;;6.30;99.90;;;;;;5053520;28;20477;-77
2022/04/12 03:41:03;;;;;;;12.90;3.65;;;6.40;99.90;;;;;;5054339;28;20102;-76
2022/04/12 03:43:28;;;;;;;15.73;4.05;;;6.30;99.90;;;;;;5053627;28;20024;-76
2022/04/12 03:45:54;;;;;;;12.10;3.70;;;6.30;99.90;;;;;;5053432;28;20029;-77
2022/04/12 03:48:20;;;;;;;10.43;3.50;;;6.30;99.90;;;;;;5054802;28;20112;-78
2022/04/12 03:50:45;;;;;;;15.55;4.28;;;6.20;99.90;;;;;;5055670;28;20474;-77
2022/04/12 03:53:11;;;;;;;15.35;3.70;;;6.30;99.90;;;;;;5055540;28;20043;-78
2022/04/12 03:55:39;;;;;;;15.23;3.70;;;6.20;99.90;;;;;;5052718;28;20025;-77
2022/04/12 03:58:07;;;;;;;15.18;3.83;;;6.20;99.90;;;;;;5054163;28;20473;-77
2022/04/12 04:00:34;;;;;;;12.45;3.78;;;6.20;99.90;;;;;;5054176;28;20560;-76
2022/04/12 04:03:00;;;;;;;15.00;4.57;;;6.20;99.90;;;;;;5054090;28;20555;-77
2022/04/12 04:05:27;;;;;;;20.77;4.43;;;6.20;99.90;;;;;;5053571;28;20481;-77
2022/04/12 04:07:53;;;;;;;17.73;4.32;;;6.20;99.90;;;;;;5053220;28;20383;-77
2022/04/12 04:10:20;;;;;;;10.63;4.40;;;6.20;99.90;;;;;;5054869;28;20031;-77
2022/04/12 04:12:45;;;;;;;16.80;4.65;;;6.20;99.90;;;;;;5058075;28;20033;-77
2022/04/12 04:15:12;;;;;;;12.25;4.18;;;6.20;99.90;;;;;;5056543;28;20021;-78
2022/04/12 04:17:42;;;;;;;13.07;4.05;;;6.10;99.90;;;;;;5065196;28;20017;-77
2022/04/12 04:20:09;;;;;;;12.95;4.65;;;6.20;99.90;;;;;;5057151;28;20029;-77
2022/04/12 04:22:35;;;;;;;12.75;3.92;;;6.20;99.90;;;;;;5056681;28;20032;-77
2022/04/12 04:25:00;;;;;;;12.82;4.72;;;6.20;99.90;;;;;;5057241;28;20386;-77
2022/04/12 04:27:28;;;;;;;16.60;4.50;;;6.20;99.90;;;;;;5057195;28;20056;-77
2022/04/12 04:29:55;;;;;;;20.85;5.18;;;6.20;99.90;;;;;;5055380;28;20025;-77
2022/04/12 04:32:21;;;;;;;13.80;4.78;;;6.20;99.90;;;;;;5057538;28;20070;-78
2022/04/12 04:34:47;;;;;;;12.18;4.25;;;6.20;99.90;;;;;;5064416;28;20207;-77
2022/04/12 04:37:13;;;;;;;16.98;4.90;;;6.10;99.90;;;;;;5074993;28;20028;-77
2022/04/12 04:39:38;;;;;;;20.50;5.00;;;6.20;99.90;;;;;;5073235;28;20075;-77
2022/04/12 04:42:05;;;;;;;14.52;4.65;;;6.20;99.90;;;;;;5056651;28;20448;-77
2022/04/12 04:44:31;;;;;;;11.27;4.90;;;6.20;99.90;;;;;;5058416;28;20028;-77
2022/04/12 04:46:56;;;;;;;14.50;4.75;;;6.20;99.90;;;;;;5058870;28;20017;-77
2022/04/12 04:49:22;;;;;;;12.18;4.32;;;6.20;99.90;;;;;;5058671;28;20033;-77
2022/04/12 04:51:47;;;;;;;14.07;4.85;;;6.30;99.90;;;;;;5058945;28;20032;-76
2022/04/12 04:54:13;;;;;;;18.80;4.68;;;6.30;99.90;;;;;;5065418;28;20381;-77
2022/04/12 04:56:39;;;;;;;10.65;4.45;;;6.30;99.90;;;;;;5064654;28;20021;-79
2022/04/12 04:59:04;;;;;;;13.43;5.25;;;6.30;99.90;;;;;;5059046;28;20097;-79
2022/04/12 05:01:30;;;;;;;13.75;4.07;;;6.30;99.90;;;;;;5059107;28;20025;-78
2022/04/12 05:03:55;;;;;;;16.73;4.72;;;6.30;99.90;;;;;;5056920;28;20021;-76
2022/04/12 05:06:21;;;;;;;15.63;5.32;;;6.40;99.90;;;;;;5055447;28;20508;-77
2022/04/12 05:08:46;;;;;;;18.42;4.90;;;6.40;99.90;;;;;;5057454;28;20155;-78
2022/04/12 05:11:12;;;;;;;19.58;5.47;;;6.50;99.90;;;;;;5058139;28;20033;-77
2022/04/12 05:13:38;;;;;;;11.85;4.43;;;6.50;99.90;;;;;;5055718;28;20029;-78
2022/04/12 05:16:04;;;;;;;15.43;4.35;;;6.60;99.90;;;;;;5056542;28;20363;-77
2022/04/12 05:18:30;;;;;;;16.58;5.60;;;6.60;99.90;;;;;;5057697;28;20029;-78
2022/04/12 05:20:55;;;;;;;13.23;4.55;;;6.60;99.90;;;;;;5057963;28;20021;-79
2022/04/12 05:23:22;;;;;;;14.10;4.57;;;6.60;99.90;;;;;;5058002;28;20060;-78
2022/04/12 05:25:47;;;;;;;22.90;5.00;;;6.60;99.90;;;;;;5059050;28;20017;-78
2022/04/12 05:28:13;;;;;;;11.27;4.05;;;6.60;99.90;;;;;;5056430;28;20084;-78
2022/04/12 05:30:38;;;;;;;13.27;5.05;;;6.70;99.90;;;;;;5059372;28;20028;-79
2022/04/12 05:33:04;;;;;;;12.15;4.35;;;6.90;99.90;;;;;;5058072;28;20033;-79
2022/04/12 05:35:30;;;;;;;17.27;4.95;;;6.80;99.90;;;;;;5056694;28;20115;-80
2022/04/12 05:37:56;;;;;;;16.77;5.25;;;6.80;99.90;;;;;;5059599;28;20024;-78
2022/04/12 05:40:22;;;;;;;10.75;4.15;;;6.90;99.90;;;;;;5060965;28;20031;-80
2022/04/12 05:42:49;;;;;;;18.27;4.97;;;6.90;99.90;;;;;;5063663;28;20029;-80
2022/04/12 05:45:15;;;;;;;12.93;4.57;;;7.00;99.90;;;;;;5058899;28;20095;-78
2022/04/12 05:47:49;;;;;;;22.98;5.50;;;7.10;99.90;;;;;;5055926;28;20497;-79
2022/04/12 05:50:16;;;;;;;15.70;5.63;;;7.10;99.90;;;;;;5058928;28;20029;-78
2022/04/12 05:52:43;;;;;;;15.65;5.35;;;7.20;99.90;;;;;;5058555;28;20025;-79
2022/04/12 05:55:16;;;;;;;12.95;5.03;;;7.30;99.90;;;;;;5061171;28;20031;-80
2022/04/12 05:57:53;;;;;;;15.88;5.10;;;7.40;99.90;;;;;;5064326;28;20039;-82
2022/04/12 06:00:20;;;;;;;16.15;5.70;;;7.40;99.90;;;;;;5060898;28;20021;-79
2022/04/12 06:02:47;;;;;;;12.80;5.60;;;7.40;99.90;;;;;;5064114;28;20437;-80
2022/04/12 06:05:14;;;;;;;14.55;5.40;;;7.40;99.90;;;;;;5059210;28;20170;-77
2022/04/12 06:07:41;;;;;;;14.48;5.45;;;7.50;99.90;;;;;;5059117;28;20068;-78
2022/04/12 06:10:07;;;;;;;17.80;5.47;;;7.50;99.90;;;;;;5058942;28;20025;-79
2022/04/12 06:12:33;;;;;;;12.07;5.40;;;7.40;99.90;;;;;;5055224;28;20025;-77
2022/04/12 06:14:58;;;;;;;15.48;5.43;;;7.50;99.90;;;;;;5055709;28;20474;-77
2022/04/12 06:17:32;;;;;;;14.93;4.97;;;7.50;99.90;;;;;;5052315;28;20715;-77
2022/04/12 06:20:10;;;;;;;15.30;4.80;;;7.60;99.90;;;;;;5036340;28;20083;-77
2022/04/12 06:22:36;;;;;;;13.18;4.70;;;7.70;99.90;;;;;;5037947;28;20041;-77
2022/04/12 06:25:02;;;;;;;23.85;4.72;;;7.70;99.90;;;;;;5038626;28;20025;-78
2022/04/12 06:27:40;;;;;;;14.98;5.40;;;7.80;99.90;;;;;;5038021;28;20039;-77
2022/04/12 06:30:14;;;;;;;13.10;4.90;;;7.80;99.90;;;;;;5036460;28;20025;-77
2022/04/12 06:32:40;;;;;;;14.02;5.00;;;7.80;99.90;;;;;;5037154;28;20084;-77
2022/04/12 06:35:09;;;;;;;12.95;5.22;;;7.80;99.90;;;;;;5040671;28;20085;-79
2022/04/12 06:37:34;;;;;;;12.23;4.18;;;7.80;99.90;;;;;;5046444;28;20050;-78
2022/04/12 06:40:01;;;;;;;10.10;4.20;;;7.90;99.90;;;;;;5045924;28;20379;-78
2022/04/12 06:42:27;;;;;;;10.30;4.35;;;8.00;99.90;;;;;;5038668;28;20021;-80
2022/04/12 06:44:53;;;;;;;13.88;4.65;;;8.00;99.90;;;;;;5038419;28;20041;-77
2022/04/12 06:47:18;;;;;;;12.57;4.47;;;8.10;99.90;;;;;;5039248;28;20076;-78
2022/04/12 06:49:51;;;;;;;12.38;4.40;;;8.20;99.90;;;;;;5038454;28;20021;-78
2022/04/12 06:52:19;;;;;;;9.88;4.30;;;8.30;99.90;;;;;;5036041;28;20021;-77
2022/04/12 06:54:45;;;;;;;10.55;4.55;;;8.30;99.90;;;;;;5033410;28;20025;-77
2022/04/12 06:57:11;;;;;;;12.23;4.55;;;8.50;99.90;;;;;;5037675;28;20029;-77
2022/04/12 06:59:36;;;;;;;20.00;4.88;;;8.60;99.90;;;;;;5041073;28;20022;-78
2022/04/12 07:02:02;;;;;;;13.48;5.47;;;8.60;99.90;;;;;;5041487;28;20025;-78
2022/04/12 07:04:28;;;;;;;14.05;4.80;;;8.70;99.90;;;;;;5040810;28;20127;-78
2022/04/12 07:06:56;;;;;;;13.75;4.75;;;8.80;99.90;;;;;;5037572;28;20490;-78
2022/04/12 07:09:22;;;;;;;13.50;4.70;;;8.80;99.90;;;;;;5034826;28;20025;-79
2022/04/12 07:11:48;;;;;;;11.63;4.13;;;8.90;99.90;;;;;;5036025;28;20075;-79
2022/04/12 07:14:14;;;;;;;11.95;4.32;;;8.90;99.90;;;;;;5040022;28;20092;-79
2022/04/12 07:16:39;;;;;;;12.25;4.18;;;9.10;99.90;;;;;;5036989;28;20430;-78
2022/04/12 07:19:05;;;;;;;8.60;4.28;;;9.20;99.90;;;;;;5042214;28;20017;-78
2022/04/12 07:21:31;;;;;;;13.52;4.70;;;9.30;99.90;;;;;;5039619;28;20128;-78
2022/04/12 07:23:59;;;;;;;12.00;4.80;;;9.30;99.90;;;;;;5038503;28;20021;-78
2022/04/12 07:26:25;;;;;;;11.65;4.28;;;9.40;99.90;;;;;;5040204;28;20033;-79
2022/04/12 07:28:50;;;;;;;8.82;4.85;;;9.50;99.90;;;;;;5037187;28;20037;-77
2022/04/12 07:31:16;;;;;;;12.38;4.88;;;9.60;99.90;;;;;;5044963;28;20029;-78
2022/04/12 07:33:41;;;;;;;11.13;4.90;;;9.70;99.90;;;;;;5039471;28;20432;-78
2022/04/12 07:36:07;;;;;;;15.88;5.13;;;9.70;99.90;;;;;;5039132;28;20029;-79
2022/04/12 07:38:32;;;;;;;13.88;6.35;;;9.80;99.90;;;;;;5038350;28;20034;-79
2022/04/12 07:40:58;;;;;;;9.57;4.68;;;10.00;99.90;;;;;;5038566;28;20383;-78
2022/04/12 07:43:23;;;;;;;13.05;5.32;;;10.10;99.90;;;;;;5036092;28;20088;-78
2022/04/12 07:45:49;;;;;;;13.55;4.65;;;10.20;99.90;;;;;;5041124;28;20100;-79
2022/04/12 07:48:15;;;;;;;12.18;4.32;;;10.50;99.90;;;;;;5043763;28;20029;-78
2022/04/12 07:50:40;;;;;;;8.88;4.07;;;10.50;99.90;;;;;;5045409;28;20041;-80
2022/04/12 07:53:06;;;;;;;14.60;4.20;;;10.50;99.90;;;;;;5043246;28;20040;-78
2022/04/12 07:55:31;;;;;;;13.70;4.47;;;10.60;99.90;;;;;;5042228;28;20013;-77
2022/04/12 07:57:57;;;;;;;15.50;4.47;;;10.70;99.90;;;;;;5046001;28;20026;-78
2022/04/12 08:00:23;;;;;;;12.25;4.22;;;10.80;99.90;;;;;;5041363;28;20084;-77
2022/04/12 08:02:49;;;;;;;14.00;4.32;;;10.80;99.90;;;;;;5056236;28;20091;-80
2022/04/12 08:05:15;;;;;;;15.48;4.72;;;10.90;99.90;;;;;;5064520;28;20033;-80
2022/04/12 08:07:47;;;;;;;10.77;3.97;;;11.00;99.90;;;;;;5064372;28;20037;-77
2022/04/12 08:10:14;;;;;;;13.23;4.25;;;11.10;99.90;;;;;;5060018;28;20082;-80
2022/04/12 08:12:40;;;;;;;12.77;4.20;;;11.20;99.90;;;;;;5060342;28;20021;-77
2022/04/12 08:15:06;;;;;;;12.57;4.53;;;11.20;99.90;;;;;;5059163;28;20084;-79
2022/04/12 08:17:31;;;;;;;9.35;3.90;;;11.30;99.90;;;;;;5064694;28;20009;-80
2022/04/12 08:19:57;;;;;;;11.98;4.28;;;11.40;99.90;;;;;;5067972;28;20047;-79
2022/04/12 08:22:22;;;;;;;15.45;4.20;;;11.50;99.90;;;;;;5057242;28;20017;-77
2022/04/12 08:24:48;;;;;;;10.57;4.00;;;11.60;99.90;;;;;;5058337;28;20021;-78
2022/04/12 08:27:13;;;;;;;11.77;4.22;;;11.60;99.90;;;;;;5060341;28;20034;-78
2022/04/12 08:29:39;;;;;;;10.27;3.97;;;11.70;99.90;;;;;;5062226;28;20032;-79
2022/04/12 08:32:05;;;;;;;14.20;4.30;;;11.80;99.90;;;;;;5059942;28;20040;-78
2022/04/12 08:34:30;;;;;;;12.40;4.40;;;11.90;99.90;;;;;;5075385;28;20080;-80
2022/04/12 08:36:56;;;;;;;17.90;4.63;;;12.00;99.90;;;;;;5069131;28;20374;-79
2022/04/12 08:39:21;;;;;;;18.83;4.30;;;12.10;99.90;;;;;;5058636;28;20029;-80
2022/04/12 08:41:47;;;;;;;16.10;4.25;;;12.10;99.90;;;;;;5060055;28;20389;-78
2022/04/12 08:44:17;;;;;;;13.05;3.88;;;12.20;99.90;;;;;;5059173;28;20477;-79
2022/04/12 08:46:47;;;;;;;12.50;3.95;;;12.30;99.90;;;;;;5058495;28;20128;-78
2022/04/12 08:49:14;;;;;;;13.55;4.35;;;12.40;99.90;;;;;;5058237;28;20063;-78
2022/04/12 08:51:39;;;;;;;11.27;4.15;;;12.60;99.90;;;;;;5063903;28;20032;-79
2022/04/12 08:54:06;;;;;;;9.60;3.88;;;12.60;99.90;;;;;;5065626;28;20033;-80
2022/04/12 08:56:32;;;;;;;12.02;4.38;;;12.80;99.90;;;;;;5061635;28;20021;-80
2022/04/12 08:58:58;;;;;;;11.63;4.50;;;12.90;99.90;;;;;;5060007;28;20027;-79
2022/04/12 09:01:24;;;;;;;12.07;4.65;;;13.00;99.90;;;;;;5058975;28;20465;-79
2022/04/12 09:03:50;;;;;;;9.95;4.22;;;13.00;99.90;;;;;;5059566;28;20036;-78
2022/04/12 09:06:16;;;;;;;12.63;4.65;;;13.20;99.90;;;;;;5068681;22;20045;-75
2022/04/12 09:08:41;;;;;;;9.95;4.90;;;13.40;99.80;;;;;;5018794;28;20026;-78
2022/04/12 09:11:08;;;;;;;12.45;4.72;;;13.60;99.10;;;;;;5035488;28;20100;-76
2022/04/12 09:13:35;;;;;;;13.38;4.65;;;13.80;97.80;;;;;;5019188;28;20084;-76
2022/04/12 09:16:06;;;;;;;14.38;5.25;;;14.10;97.10;;;;;;5022459;28;20486;-77
2022/04/12 09:18:31;;;;;;;17.33;6.18;;;14.50;95.50;;;;;;5025499;28;20022;-78
2022/04/12 09:21:10;;;;;;;14.55;6.55;;;15.00;94.30;;;;;;5026005;28;20053;-79
2022/04/12 09:23:36;;;;;;;16.10;5.78;;;15.40;92.60;;;;;;5025843;28;20041;-75
2022/04/12 09:26:01;;;;;;;11.85;5.60;;;15.70;90.70;;;;;;5023803;28;20030;-78
2022/04/12 09:28:39;;;;;;;14.77;6.30;;;15.80;90.30;;;;;;5028121;28;20418;-76
2022/04/12 09:31:17;;;;;;;13.02;5.90;;;16.00;88.00;;;;;;5028108;28;20041;-76
2022/04/12 09:33:44;;;;;;;11.13;6.25;;;15.90;85.50;;;;;;5025760;28;20033;-76
2022/04/12 09:36:11;;;;;;;12.10;5.90;;;15.90;85.60;;;;;;5023621;28;20029;-78
2022/04/12 09:38:38;;;;;;;12.88;5.85;;;16.10;85.00;;;;;;5027831;28;20252;-78
2022/04/12 09:41:16;;;;;;;15.93;7.05;;;16.20;84.40;;;;;;5020709;28;20032;-77
2022/04/12 09:44:08;;;;;;;15.10;6.25;;;16.30;83.80;;;;;;5023039;28;20097;-79
2022/04/12 09:46:35;;;;;;;18.48;7.03;;;16.20;82.40;;;;;;5024787;28;20026;-78
2022/04/12 09:49:01;;;;;;;12.90;6.38;;;15.90;79.80;;;;;;5022981;28;20026;-77
2022/04/12 09:51:27;;;;;;;13.55;7.72;;;15.60;80.30;;;;;;5024562;28;20030;-80
2022/04/12 09:53:52;;;;;;;17.23;7.53;;;15.40;80.70;;;;;;5024742;28;20618;-78
2022/04/12 09:56:27;;;;;;;13.07;7.10;;;15.30;81.90;;;;;;5024197;28;20022;-78
2022/04/12 09:58:55;;;;;;;18.33;7.43;;;15.50;82.90;;;;;;5025111;28;20022;-79
2022/04/12 10:01:22;;;;;;;16.05;7.78;;;15.60;81.20;;;;;;5025278;28;20414;-80
2022/04/12 10:03:52;;;;;;;19.38;7.68;;;15.60;81.20;;;;;;5026988;28;20022;-78
2022/04/12 10:06:23;;;;;;;15.63;7.30;;;15.70;80.20;;;;;;5022453;28;20033;-76
2022/04/12 10:09:03;;;;;;;14.95;7.35;;;15.60;79.70;;;;;;5015614;28;20026;-77
2022/04/12 10:11:29;;;;;;;15.85;7.80;;;15.50;79.80;;;;;;5019329;28;20026;-76
2022/04/12 10:13:54;;;;;;;17.10;7.78;;;15.50;79.70;;;;;;5006589;28;20545;-77
2022/04/12 10:16:22;;;;;;;14.98;7.75;;;15.40;80.00;;;;;;4999856;28;20105;-77
2022/04/12 10:18:48;;;;;;;18.77;7.95;;;15.30;80.40;;;;;;5017094;28;20022;-77
2022/04/12 10:21:14;;;;;;;20.63;7.75;;;15.30;81.10;;;;;;5017219;28;20038;-75
2022/04/12 10:23:46;;;;;;;14.10;7.25;;;15.30;81.70;;;;;;5015076;28;20033;-75
2022/04/12 10:26:13;;;;;;;13.70;7.63;;;15.40;81.60;;;;;;5017924;28;20058;-77
2022/04/12 10:28:40;;;;;;;19.98;8.13;;;15.40;81.40;;;;;;5018035;28;20420;-76
2022/04/12 10:31:14;;;;;;;14.27;7.30;;;15.40;81.20;;;;;;5015034;28;20122;-77
2022/04/12 10:33:40;;;;;;;16.77;7.93;;;15.40;82.00;;;;;;5014673;28;20029;-76
2022/04/12 10:36:07;;;;;;;15.38;8.00;;;15.50;81.10;;;;;;5014643;28;20548;-75
2022/04/12 10:38:41;;;;;;;16.95;7.85;;;15.60;81.60;;;;;;5013343;28;20030;-77
2022/04/12 10:41:23;;;;;;;17.83;8.63;;;15.90;82.20;;;;;;5014477;28;20050;-77
2022/04/12 10:43:55;;;;;;;20.38;8.75;;;16.10;81.00;;;;;;5016060;28;20057;-76
2022/04/12 10:46:20;;;;;;;21.08;8.35;;;16.20;80.20;;;;;;5019460;28;20029;-76
2022/04/12 10:48:54;;;;;;;16.25;7.95;;;16.30;80.50;;;;;;5017883;28;20033;-75
2022/04/12 10:51:40;;;;;;;20.88;8.25;;;16.50;78.70;;;;;;5016973;28;20021;-76
2022/04/12 10:54:09;;;;;;;17.55;8.60;;;16.40;77.00;;;;;;5021381;28;20033;-76
2022/04/12 10:56:35;;;;;;;15.30;8.35;;;16.30;79.50;;;;;;5018340;28;20021;-79
2022/04/12 10:59:02;;;;;;;16.45;8.00;;;16.40;78.80;;;;;;5018145;28;20030;-76
2022/04/12 11:01:29;;;;;;;17.88;8.98;;;16.60;79.40;;;;;;5016917;28;20390;-75
2022/04/12 11:03:55;;;;;;;16.70;8.85;;;16.70;78.80;;;;;;5015960;28;20044;-76
2022/04/12 11:06:23;;;;;;;17.23;8.73;;;16.90;78.10;;;;;;5015770;28;20494;-78
2022/04/12 11:08:51;;;;;;;21.73;9.20;;;17.00;77.60;;;;;;5014305;28;20421;-77
2022/04/12 11:11:40;;;;;;;16.60;8.70;;;16.90;76.60;;;;;;5016616;28;20030;-77
2022/04/12 11:14:32;;;;;;;22.33;9.00;;;16.70;76.80;;;;;;4995757;28;20360;-77
2022/04/12 11:17:09;;;;;;;16.67;8.52;;;16.80;76.60;;;;;;4996694;28;20510;-77
2022/04/12 11:19:47;;;;;;;20.92;8.98;;;17.00;76.40;;;;;;4995131;28;20031;-76
2022/04/12 11:22:14;;;;;;;14.68;8.75;;;17.30;76.20;;;;;;4999173;28;20019;-77
2022/04/12 11:24:41;;;;;;;14.90;8.60;;;17.40;74.80;;;;;;4995573;28;20030;-76
2022/04/12 11:27:11;;;;;;;16.13;8.43;;;17.40;75.10;;;;;;4996428;28;20038;-77
2022/04/12 11:29:39;;;;;;;15.07;8.10;;;17.50;74.20;;;;;;4994937;28;20027;-76
2022/04/12 11:32:05;;;;;;;15.05;8.40;;;17.60;73.40;;;;;;4996115;28;20084;-76
2022/04/12 11:34:31;;;;;;;18.67;8.50;;;18.00;73.60;;;;;;4996904;28;20042;-76
2022/04/12 11:37:03;;;;;;;15.55;8.80;;;18.40;71.40;;;;;;4996859;28;20039;-77
2022/04/12 11:39:31;;;;;;;15.20;9.00;;;18.90;70.40;;;;;;4995808;28;20499;-76
2022/04/12 11:42:02;;;;;;;14.23;8.75;;;19.40;68.80;;;;;;4995729;28;20026;-76
2022/04/12 11:44:30;;;;;;;16.88;8.73;;;19.70;68.20;;;;;;4998004;28;20027;-77
2022/04/12 11:47:01;;;;;;;13.63;8.70;;;20.40;66.70;;;;;;4996932;28;20026;-75
2022/04/12 11:49:36;;;;;;;17.27;8.80;;;20.60;64.20;;;;;;4997356;28;20026;-76
2022/04/12 11:52:05;;;;;;;15.30;8.40;;;20.70;63.10;;;;;;4998265;28;20110;-77
2022/04/12 11:54:32;;;;;;;18.05;8.90;;;21.00;61.70;;;;;;4994949;28;20516;-77
2022/04/12 11:57:10;;;;;;;19.58;8.90;;;21.50;61.80;;;;;;4995342;28;20470;-77
2022/04/12 11:59:44;;;;;;;15.57;9.35;;;22.20;58.60;;;;;;4999939;28;20097;-76
2022/04/12 12:02:10;;;;;;;20.73;9.10;;;22.20;57.10;;;;;;4996706;28;20034;-77
2022/04/12 12:04:37;;;;;;;14.30;8.35;;;22.40;57.30;;;;;;4993592;28;20044;-77
2022/04/12 12:07:07;;;;;;;19.67;9.38;;;22.20;56.40;;;;;;4992517;28;20030;-76
2022/04/12 12:09:34;;;;;;;22.67;8.27;;;22.40;55.80;;;;;;4994247;28;20117;-77
2022/04/12 12:12:07;;;;;;;15.73;8.55;;;22.90;55.00;;;;;;4995808;28;20037;-75
2022/04/12 12:14:34;;;;;;;15.40;9.10;;;23.70;53.30;;;;;;4997743;28;20085;-75
2022/04/12 12:17:06;;;;;;;18.25;8.05;;;24.00;51.80;;;;;;4996861;28;20061;-77
2022/04/12 12:19:33;;;;;;;14.00;9.00;;;24.10;50.80;;;;;;4998264;28;20437;-76
2022/04/12 12:22:02;;;;;;;15.88;8.80;;;23.80;50.30;;;;;;4996986;28;20022;-80
2022/04/12 12:24:28;;;;;;;17.52;8.70;;;23.60;50.50;;;;;;4997929;28;20541;-76
2022/04/12 12:26:57;;;;;;;14.68;8.43;;;23.80;50.30;;;;;;5009465;28;20038;-76
2022/04/12 12:29:25;;;;;;;16.10;8.70;;;24.00;48.90;;;;;;5015473;28;20503;-75
2022/04/12 12:31:57;;;;;;;15.55;8.90;;;24.10;48.60;;;;;;5020735;28;20037;-75
2022/04/12 12:34:34;;;;;;;21.30;9.43;;;24.20;48.60;;;;;;5015775;28;20026;-77
2022/04/12 12:37:06;;;;;;;13.07;8.00;;;24.70;48.00;;;;;;5016357;28;20018;-77
2022/04/12 12:39:40;;;;;;;17.00;9.65;;;24.80;48.20;;;;;;5016733;28;20022;-75
2022/04/12 12:42:07;;;;;;;16.52;8.45;;;25.10;46.60;;;;;;5020138;28;20018;-77
2022/04/12 12:44:35;;;;;;;16.75;8.52;;;25.40;46.30;;;;;;5021144;28;20057;-76
2022/04/12 12:47:03;;;;;;;18.75;10.05;;;26.00;45.00;;;;;;5019052;28;20030;-75